091  
SHUS65 KGJT 222024  
FWOGJT  
 
DAILY FIRE WEATHER OBSERVATION  
NATIONAL WEATHER SERVICE GRAND JUNCTION CO  
212 PM MDT SUN JUL 22 2018  
 
STATE OF THE WEATHER (W) 1  
DRY BULB TEMPERATURE 94 DEGREES FAHRENHEIT  
RELATIVE HUMIDITY (RH) 24 PERCENT  
LIGHTNING ACTIVITY LEVEL  
(LAL - MIDNIGHT TO 2 PM) 1  
WIND DIRECTION 270 DEGREES (C IF CALM)  
WIND SPEED 7 MPH  
MAX TEMP (2 PM - 2 PM) 101 DEGREES FAHRENHEIT  
MIN TEMP (2 PM - 2 PM) 70 DEGREES FAHRENHEIT  
MAX RH (2 PM - 2 PM) 61 PERCENT  
MIN RH (2 PM - 2 PM) 15 PERCENT  
PCPN DURATION 1.8 HOURS  
PCPN AMT (2 PM - 2 PM) 0.06 INCHES  
LAL (2 PM - 2 PM) 2  
 

 
 
METAR KGJT 221953Z 28006KT 10SM CLR 34/11 A3014 RMK AO2 SLP121  
T03440106  
 
CLICK HERE TO GO TO PREVIOUS BULLETINS.

The Nexlab CO Page
The Nexlab UT Page Main Text Page